Main page
METAR-TAF:

METAR-TAF

Airports :

Xi'an Xianyang International Airport

Xi'an, China

latitude: 34-26N, longitude: 108-45E, elevation: 479 m

Current weather observation

The report was made 44 minutes ago, at 12:00 UTC
Wind 10 kt from the East
Temperature 16°C
Humidity 48%
Pressure 1020 hPa
Visibility: 7000 m

METAR: ZLXY 181200Z 08005MPS 7000 NSC 16/05 Q1020 NOSIG

Time: 20:44 (12:44 UTC)

Forecast

The report was made 3 hours and 25 minutes ago, at 09:19 UTC
Forecast valid from 18 at 12 UTC to 19 at 12 UTC
Wind 8 kt from the East/Northeast with gusts up to 19 kt
Visibility: 3000 m
haze

TAF: ZLXY 180919Z 1812/1912 07004G10MPS 3000 HZ NSC TX17/1907Z TN10/1823Z

Weather observations and forecasts of more than 4000 airports (METAR and TAF reports).

The available stations are represented by yellow and red dots on the map.

Hover mouse over dot to see the name of the station.

Then click to see weather observations and forecasts.

To change the map : click on the green buttons with a black cross to zoom in, on the green button with a dash to zoom out, or on the green arrows for adjacent maps.


METAR-TAF: